Toluca, Mexico

12:10 AM CDT on August 25, 2016 (GMT -0500)
Lic Adolfo Lopez Mateos International | | Change Station

Elev 8451 ft 19.34 °N, 99.57 °W | Updated 22 minutes ago

Light Rain
Light Rain
52 °F
Feels Like 52 °F
N
4
Wind Variable Wind from East

Today
High -- | Low -- °F
--% Chance of Precip.
Yesterday
High -- | Low -- °F
Precip. -- in
Pressure 30.50 in
Visibility 5.0 miles
Clouds Scattered Clouds 1500 ft
Mostly Cloudy 7000 ft
Overcast 20000 ft
Dew Point 48 °F
Humidity 88%
Rainfall 8.10 in
Snow Depth Not available.
7:21 AM 7:58 PM
Waning Gibbous, 49% visible
METAR MMTO 250448Z 09003KT 5SM -RA SCT015 BKN070 OVC200 11/09 A3050 RMK 60065 8/462 HZY
Pressure 30.50 in
Visibility 5.0 miles
Clouds Scattered Clouds 1500 ft
Mostly Cloudy 7000 ft
Overcast 20000 ft
Dew Point 48 °F
Humidity 88%
Rainfall 8.10 in
Snow Depth Not available.
7:21 AM 7:58 PM
Waning Gibbous, 49% visible
METAR MMTO 250448Z 09003KT 5SM -RA SCT015 BKN070 OVC200 11/09 A3050 RMK 60065 8/462 HZY

10-Day Weather Forecast

No radar image for this location.
×

Almanac

Astronomy

Aug. 25, 2016 Rise Set
Actual Time
Civil Twilight
Nautical Twilight
Astronomical Twilight
Moon
Length of Visible Light
Length of Day
Tomorrow will be .
, % of the Moon is Illuminated

Today's Extremes

Country Highs Country Lows

Community

WunderPhotos

Upload Photos

1,934,799 photos uploaded!

WunderBlog® & News

Nearby

Air Quality

  Air Quality AQ Index Pollutant
Not available.

Snow Depth

Station Depth Elevation

Earthquake Activity

City Distance Mag. Time & Date
Minimum magnitude displayed is 2.5.

Coastal Water Temperatures

Place Temperature

Stations

Nearby Weather Stations

Station Location Temp. Windchill Dew Point Humidity Wind Precip. Elev Updated Type